Time;durP1;ratioP1;P1;durP2;ratioP2;P2;SDS_P1;SDS_P2;PMS_P1;PMS_P2;Temp;Humidity;BMP_temperature;BMP_pressure;BME280_temperature;BME280_humidity;BME280_pressure;Samples;Min_cycle;Max_cycle;Signal;HPM_P1;HPM_P2
2022/04/08 00:01:38;;;;;;;4.50;1.00;;;7.10;99.90;;;;;;5053778;28;20468;-86
2022/04/08 00:04:05;;;;;;;4.53;1.38;;;7.10;99.90;;;;;;5052740;28;20053;-87
2022/04/08 00:06:32;;;;;;;7.03;1.05;;;7.00;99.90;;;;;;5053850;28;20088;-89
2022/04/08 00:08:59;;;;;;;6.22;1.02;;;7.00;99.90;;;;;;5052972;28;20144;-85
2022/04/08 00:11:26;;;;;;;6.07;1.13;;;7.00;99.90;;;;;;5052739;28;20476;-85
2022/04/08 00:13:53;;;;;;;4.80;1.13;;;7.00;99.90;;;;;;5053775;28;20112;-86
2022/04/08 00:16:20;;;;;;;4.47;1.40;;;6.90;99.90;;;;;;5053525;28;20135;-86
2022/04/08 00:18:48;;;;;;;6.53;1.08;;;6.90;99.90;;;;;;5052553;28;20053;-86
2022/04/08 00:21:15;;;;;;;3.47;1.00;;;6.80;99.90;;;;;;5052507;28;20413;-87
2022/04/08 00:23:42;;;;;;;7.50;1.77;;;6.80;99.90;;;;;;5052275;28;20564;-85
2022/04/08 00:26:09;;;;;;;4.72;1.17;;;6.90;99.90;;;;;;5053508;28;20045;-88
2022/04/08 00:28:36;;;;;;;5.70;1.13;;;7.00;99.90;;;;;;5053622;28;20575;-87
2022/04/08 00:31:04;;;;;;;5.80;0.77;;;7.10;99.90;;;;;;5053574;28;20457;-88
2022/04/08 00:33:32;;;;;;;3.92;0.88;;;7.20;99.90;;;;;;5052360;28;20057;-85
2022/04/08 00:36:00;;;;;;;2.38;0.80;;;7.30;99.90;;;;;;5053093;28;20080;-86
2022/04/08 00:38:27;;;;;;;7.32;1.15;;;7.20;99.90;;;;;;5052149;28;20137;-85
2022/04/08 00:40:54;;;;;;;5.22;1.20;;;7.20;99.90;;;;;;5052041;28;20098;-85
2022/04/08 00:43:35;;;;;;;5.47;1.17;;;7.00;99.90;;;;;;5051932;28;20559;-85
2022/04/08 00:46:07;;;;;;;5.90;1.30;;;6.90;99.90;;;;;;5051879;28;20132;-84
2022/04/08 00:48:36;;;;;;;3.97;1.10;;;6.80;99.90;;;;;;5051986;28;20055;-85
2022/04/08 00:51:05;;;;;;;4.53;0.85;;;6.80;99.90;;;;;;5052964;28;20083;-85
2022/04/08 00:53:35;;;;;;;12.32;1.33;;;6.90;99.90;;;;;;5052263;28;20125;-86
2022/04/08 00:56:03;;;;;;;4.60;0.98;;;7.00;99.90;;;;;;5051824;28;20048;-86
2022/04/08 00:58:31;;;;;;;13.48;1.88;;;7.20;99.90;;;;;;5052071;28;20132;-85
2022/04/08 01:00:58;;;;;;;6.50;1.00;;;7.30;99.90;;;;;;5051844;28;20087;-85
2022/04/08 01:03:25;;;;;;;10.13;1.52;;;7.20;99.90;;;;;;5052750;28;20052;-86
2022/04/08 01:05:52;;;;;;;7.85;1.45;;;7.00;99.90;;;;;;5052605;28;20132;-85
2022/04/08 01:08:19;;;;;;;4.60;1.05;;;6.80;99.90;;;;;;5052924;28;20048;-85
2022/04/08 01:10:47;;;;;;;5.82;1.10;;;6.70;99.90;;;;;;5052926;28;20055;-86
2022/04/08 01:13:14;;;;;;;5.22;1.48;;;6.60;99.90;;;;;;5051506;28;20144;-86
2022/04/08 01:15:41;;;;;;;7.28;1.30;;;6.50;99.90;;;;;;5052661;28;20048;-85
2022/04/08 01:18:10;;;;;;;5.70;1.20;;;6.40;99.90;;;;;;5052525;28;20139;-85
2022/04/08 01:20:36;;;;;;;4.97;1.25;;;6.40;99.90;;;;;;5052864;28;20057;-86
2022/04/08 01:23:04;;;;;;;9.27;1.00;;;6.30;99.90;;;;;;5051435;28;20130;-85
2022/04/08 01:25:31;;;;;;;4.75;0.80;;;6.20;99.90;;;;;;5052504;28;20084;-85
2022/04/08 01:27:58;;;;;;;7.78;1.30;;;6.00;99.90;;;;;;5052467;28;20049;-85
2022/04/08 01:30:24;;;;;;;6.50;1.13;;;5.80;99.90;;;;;;5051240;28;20056;-85
2022/04/08 01:32:51;;;;;;;3.78;0.88;;;5.80;99.90;;;;;;5051501;28;20092;-84
2022/04/08 01:35:18;;;;;;;4.68;1.10;;;5.80;99.90;;;;;;5052396;28;20536;-85
2022/04/08 01:37:45;;;;;;;4.65;0.93;;;5.70;99.90;;;;;;5052475;28;20137;-85
2022/04/08 01:40:12;;;;;;;3.47;1.00;;;5.60;99.90;;;;;;5052209;28;20052;-85
2022/04/08 01:42:39;;;;;;;7.10;1.10;;;5.60;99.90;;;;;;5051084;28;20132;-85
2022/04/08 01:45:06;;;;;;;5.07;0.90;;;5.50;99.90;;;;;;5050847;28;20569;-84
2022/04/08 01:47:33;;;;;;;3.65;0.98;;;5.60;99.90;;;;;;5051338;28;20041;-84
2022/04/08 01:50:00;;;;;;;4.95;1.38;;;5.70;99.90;;;;;;5052531;28;20091;-85
2022/04/08 01:52:26;;;;;;;6.78;1.10;;;5.70;99.90;;;;;;5051368;28;20088;-85
2022/04/08 01:54:53;;;;;;;7.43;1.10;;;5.70;99.90;;;;;;5052567;28;20135;-86
2022/04/08 01:57:23;;;;;;;9.65;1.35;;;5.60;99.90;;;;;;5056200;28;20477;-85
2022/04/08 01:59:53;;;;;;;5.22;1.17;;;5.50;99.90;;;;;;5056557;28;20529;-85
2022/04/08 02:02:20;;;;;;;6.50;1.55;;;5.30;99.90;;;;;;5055885;28;20049;-85
2022/04/08 02:04:47;;;;;;;5.50;1.10;;;5.10;99.90;;;;;;5054896;28;20071;-85
2022/04/08 02:07:14;;;;;;;8.50;1.17;;;4.90;99.90;;;;;;5054485;28;20052;-85
2022/04/08 02:09:41;;;;;;;4.68;1.58;;;4.90;99.90;;;;;;5055974;28;20098;-84
2022/04/08 02:12:08;;;;;;;4.40;1.20;;;4.90;99.90;;;;;;5055114;28;20095;-86
2022/04/08 02:14:35;;;;;;;2.55;1.00;;;4.90;99.90;;;;;;5054968;28;20040;-85
2022/04/08 02:17:01;;;;;;;4.15;1.00;;;4.90;99.90;;;;;;5054943;28;20133;-85
2022/04/08 02:19:28;;;;;;;2.35;0.90;;;4.80;99.90;;;;;;5056006;28;20539;-86
2022/04/08 02:21:57;;;;;;;1.98;0.90;;;4.80;99.90;;;;;;5054552;28;20470;-85
2022/04/08 02:24:25;;;;;;;1.38;0.63;;;4.80;99.90;;;;;;5054233;28;20053;-86
2022/04/08 02:26:52;;;;;;;2.20;1.02;;;4.80;99.90;;;;;;5054530;28;20128;-85
2022/04/08 02:29:19;;;;;;;3.42;0.68;;;4.70;99.90;;;;;;5054605;28;20081;-84
2022/04/08 02:31:46;;;;;;;2.00;1.08;;;4.70;99.90;;;;;;5055586;28;20053;-84
2022/04/08 02:34:13;;;;;;;1.13;0.75;;;4.60;99.90;;;;;;5053924;28;20127;-85
2022/04/08 02:36:40;;;;;;;5.32;1.30;;;4.50;99.90;;;;;;5055376;28;20476;-85
2022/04/08 02:39:08;;;;;;;1.83;1.17;;;4.40;99.90;;;;;;5054042;28;20494;-85
2022/04/08 02:41:34;;;;;;;5.47;1.85;;;4.40;99.90;;;;;;5055285;28;20055;-85
2022/04/08 02:44:01;;;;;;;6.15;2.03;;;4.30;99.90;;;;;;5054087;28;20053;-85
2022/04/08 02:46:28;;;;;;;2.50;1.38;;;4.20;99.90;;;;;;5053918;28;20064;-84
2022/04/08 02:48:55;;;;;;;2.38;1.10;;;4.10;99.90;;;;;;5054026;28;20073;-85
2022/04/08 02:51:22;;;;;;;4.15;1.58;;;4.00;99.90;;;;;;5053948;28;20551;-84
2022/04/08 02:53:48;;;;;;;4.00;1.48;;;3.90;99.90;;;;;;5053778;28;20067;-84
2022/04/08 02:56:15;;;;;;;7.13;1.80;;;3.80;99.90;;;;;;5054737;28;20051;-85
2022/04/08 02:58:42;;;;;;;3.38;1.25;;;3.70;99.90;;;;;;5053983;28;20052;-85
2022/04/08 03:01:10;;;;;;;5.80;1.90;;;3.60;99.90;;;;;;5053857;28;20561;-85
2022/04/08 03:03:36;;;;;;;5.03;2.03;;;3.70;99.90;;;;;;5054790;28;20049;-85
2022/04/08 03:06:03;;;;;;;4.18;2.22;;;3.70;99.90;;;;;;5053450;28;20061;-85
2022/04/08 03:08:30;;;;;;;6.95;2.40;;;3.60;99.90;;;;;;5054727;28;20045;-84
2022/04/08 03:10:57;;;;;;;5.30;2.30;;;3.60;99.90;;;;;;5053692;28;20087;-85
2022/04/08 03:13:24;;;;;;;2.65;2.20;;;3.50;99.90;;;;;;5053703;28;20166;-85
2022/04/08 03:15:51;;;;;;;5.18;2.40;;;3.50;99.90;;;;;;5054663;28;20045;-86
2022/04/08 03:18:18;;;;;;;3.60;2.72;;;3.50;99.90;;;;;;5053547;28;20049;-85
2022/04/08 03:20:45;;;;;;;5.40;2.80;;;3.60;99.90;;;;;;5053625;28;20045;-84
2022/04/08 03:23:13;;;;;;;6.55;2.50;;;3.60;99.90;;;;;;5054425;28;20063;-85
2022/04/08 03:25:39;;;;;;;2.70;2.40;;;3.60;99.90;;;;;;5053230;28;20456;-85
2022/04/08 03:28:08;;;;;;;7.45;2.70;;;3.50;99.90;;;;;;5053527;28;20084;-85
2022/04/08 03:30:35;;;;;;;5.50;2.53;;;3.50;99.90;;;;;;5054392;28;20067;-85
2022/04/08 03:33:03;;;;;;;7.32;2.80;;;3.40;99.90;;;;;;5054246;28;20045;-85
2022/04/08 03:35:30;;;;;;;6.28;2.60;;;3.50;99.90;;;;;;5052874;28;20144;-85
2022/04/08 03:37:57;;;;;;;7.57;2.90;;;3.50;99.90;;;;;;5054872;28;20069;-85
2022/04/08 03:40:24;;;;;;;7.03;2.65;;;3.50;99.90;;;;;;5054272;28;20500;-85
2022/04/08 03:42:51;;;;;;;5.22;2.63;;;3.60;99.90;;;;;;5054083;28;20067;-85
2022/04/08 03:45:17;;;;;;;4.10;2.67;;;3.60;99.90;;;;;;5052480;28;20148;-85
2022/04/08 03:47:46;;;;;;;5.07;2.90;;;3.60;99.90;;;;;;5053017;28;20131;-85
2022/04/08 03:50:12;;;;;;;5.15;2.60;;;3.50;99.90;;;;;;5053956;28;20060;-85
2022/04/08 03:52:39;;;;;;;4.55;2.28;;;3.60;99.90;;;;;;5052685;28;20192;-85
2022/04/08 03:55:07;;;;;;;5.50;2.17;;;3.70;99.90;;;;;;5052940;28;20049;-85
2022/04/08 03:57:33;;;;;;;6.57;2.35;;;3.80;99.90;;;;;;5052664;28;20374;-85
2022/04/08 04:00:00;;;;;;;4.18;1.77;;;3.80;99.90;;;;;;5052643;28;20509;-85
2022/04/08 04:02:27;;;;;;;8.32;2.25;;;4.00;99.90;;;;;;5052702;28;20142;-87
2022/04/08 04:04:59;;;;;;;1.70;1.60;;;4.10;99.90;;;;;;5053461;28;20056;-85
2022/04/08 04:07:26;;;;;;;4.97;1.42;;;4.40;99.90;;;;;;5052179;28;20056;-85
2022/04/08 04:09:53;;;;;;;8.02;1.80;;;4.50;99.90;;;;;;5052378;28;20453;-84
2022/04/08 04:12:20;;;;;;;1.85;1.33;;;4.60;99.90;;;;;;5052145;28;20489;-85
2022/04/08 04:14:47;;;;;;;2.40;1.63;;;4.70;99.90;;;;;;5053179;28;20131;-84
2022/04/08 04:17:13;;;;;;;6.60;2.55;;;4.70;99.90;;;;;;5052822;28;20560;-84
2022/04/08 04:19:40;;;;;;;2.72;1.55;;;4.70;99.90;;;;;;5052177;28;20132;-85
2022/04/08 04:22:07;;;;;;;5.53;2.22;;;4.70;99.90;;;;;;5053259;28;20111;-85
2022/04/08 04:24:34;;;;;;;4.22;1.77;;;4.80;99.90;;;;;;5051759;28;20408;-84
2022/04/08 04:27:00;;;;;;;4.63;2.08;;;4.90;99.90;;;;;;5051897;28;20120;-84
2022/04/08 04:29:27;;;;;;;2.13;1.48;;;4.90;99.90;;;;;;5051859;28;20506;-84
2022/04/08 04:31:55;;;;;;;4.22;1.50;;;4.90;99.90;;;;;;5051996;28;20127;-85
2022/04/08 04:34:26;;;;;;;3.63;1.40;;;4.90;99.90;;;;;;5051794;28;20057;-84
2022/04/08 04:36:53;;;;;;;2.50;1.77;;;5.00;99.90;;;;;;5051906;28;20482;-84
2022/04/08 04:39:19;;;;;;;1.48;1.15;;;5.00;99.90;;;;;;5052906;28;20049;-85
2022/04/08 04:41:46;;;;;;;1.85;1.25;;;5.00;99.90;;;;;;5052871;28;20569;-84
2022/04/08 04:44:13;;;;;;;4.28;1.52;;;5.00;99.90;;;;;;5051361;28;20417;-84
2022/04/08 04:46:43;;;;;;;3.65;1.80;;;5.10;99.90;;;;;;5051682;28;20409;-85
2022/04/08 04:49:10;;;;;;;2.03;1.55;;;5.20;99.90;;;;;;5051756;28;20080;-85
2022/04/08 04:51:37;;;;;;;2.08;1.30;;;5.30;99.90;;;;;;5051823;28;20045;-86
2022/04/08 04:54:03;;;;;;;4.10;1.85;;;5.40;99.90;;;;;;5051766;28;20055;-86
2022/04/08 04:56:30;;;;;;;2.13;1.67;;;5.40;99.90;;;;;;5052638;28;20049;-86
2022/04/08 04:58:57;;;;;;;3.80;1.70;;;5.50;99.90;;;;;;5051728;28;20087;-85
2022/04/08 05:01:24;;;;;;;3.22;1.15;;;5.50;99.90;;;;;;5051569;28;20140;-87
2022/04/08 05:03:51;;;;;;;4.10;1.50;;;5.50;99.90;;;;;;5051837;28;20051;-85
2022/04/08 05:06:18;;;;;;;2.45;1.25;;;5.60;99.90;;;;;;5050952;28;20107;-86
2022/04/08 05:08:50;;;;;;;4.75;1.35;;;5.60;99.90;;;;;;5051806;28;20045;-86
2022/04/08 05:11:17;;;;;;;3.90;1.30;;;5.60;99.90;;;;;;5051928;28;20404;-87
2022/04/08 05:13:44;;;;;;;6.35;2.03;;;5.70;99.90;;;;;;5052360;28;20092;-86
2022/04/08 05:16:11;;;;;;;1.38;1.13;;;5.70;99.90;;;;;;5051194;28;20478;-87
2022/04/08 05:18:38;;;;;;;2.30;1.17;;;5.80;99.90;;;;;;5052751;28;20260;-88
2022/04/08 05:21:05;;;;;;;1.52;1.00;;;5.80;99.90;;;;;;5051683;28;20131;-86
2022/04/08 05:23:32;;;;;;;3.15;1.25;;;5.80;99.90;;;;;;5051315;28;20128;-87
2022/04/08 05:26:00;;;;;;;2.88;1.42;;;5.90;99.90;;;;;;5052442;28;20506;-86
2022/04/08 05:28:27;;;;;;;1.20;1.02;;;6.00;99.90;;;;;;5053210;28;20048;-86
2022/04/08 05:30:54;;;;;;;1.25;1.05;;;6.10;99.90;;;;;;5056323;28;20072;-86
2022/04/08 05:33:21;;;;;;;2.58;1.00;;;6.20;99.90;;;;;;5054897;28;20116;-86
2022/04/08 05:35:48;;;;;;;4.55;1.50;;;6.30;99.90;;;;;;5055356;28;20048;-87
2022/04/08 05:38:15;;;;;;;2.53;1.10;;;6.30;99.90;;;;;;5056602;28;20045;-86
2022/04/08 05:40:42;;;;;;;2.22;1.25;;;6.20;99.90;;;;;;5089031;28;20128;-86
2022/04/08 05:43:09;;;;;;;7.68;1.50;;;6.30;99.90;;;;;;5088591;28;20569;-86
2022/04/08 05:45:36;;;;;;;2.78;0.90;;;6.30;99.90;;;;;;5056344;28;20049;-87
2022/04/08 05:48:04;;;;;;;3.90;0.65;;;6.30;99.90;;;;;;5055055;28;20053;-86
2022/04/08 05:50:31;;;;;;;1.38;0.85;;;6.20;99.90;;;;;;5054020;28;20072;-86
2022/04/08 05:52:58;;;;;;;4.00;0.98;;;6.10;99.90;;;;;;5054580;28;20105;-86
2022/04/08 05:55:25;;;;;;;3.78;1.10;;;6.10;99.90;;;;;;5054606;28;20049;-87
2022/04/08 05:57:56;;;;;;;3.53;0.90;;;6.00;99.90;;;;;;5056417;28;20048;-86
2022/04/08 06:00:24;;;;;;;1.13;0.90;;;6.00;99.90;;;;;;5055133;28;20055;-85
2022/04/08 06:02:53;;;;;;;1.85;0.80;;;6.10;99.90;;;;;;5056190;28;20473;-86
2022/04/08 06:05:20;;;;;;;1.52;0.98;;;6.10;99.90;;;;;;5054091;28;20489;-86
2022/04/08 06:07:52;;;;;;;1.55;0.73;;;6.40;99.90;;;;;;5056162;28;20127;-87
2022/04/08 06:10:22;;;;;;;0.80;0.70;;;7.00;99.90;;;;;;5055009;28;20084;-86
2022/04/08 06:12:50;;;;;;;1.67;0.80;;;7.30;99.90;;;;;;5055187;28;20061;-86
2022/04/08 06:15:18;;;;;;;1.38;0.70;;;7.50;99.90;;;;;;5088577;28;20080;-87
2022/04/08 06:17:46;;;;;;;1.75;1.00;;;7.60;99.90;;;;;;5055217;28;20048;-86
2022/04/08 06:20:16;;;;;;;3.53;1.00;;;7.30;99.90;;;;;;5056048;28;20081;-87
2022/04/08 06:22:43;;;;;;;4.55;0.90;;;7.30;99.90;;;;;;5056490;28;20378;-86
2022/04/08 06:25:12;;;;;;;1.45;0.60;;;7.60;99.90;;;;;;5057231;28;20055;-86
2022/04/08 06:27:39;;;;;;;1.15;0.60;;;8.00;99.90;;;;;;5055377;28;20045;-86
2022/04/08 06:30:11;;;;;;;1.23;0.75;;;8.00;99.90;;;;;;5055954;28;20114;-87
2022/04/08 06:32:39;;;;;;;0.40;0.38;;;8.20;99.90;;;;;;5054210;28;20045;-86
2022/04/08 06:35:06;;;;;;;1.73;1.13;;;8.90;99.90;;;;;;5055106;28;20135;-86
2022/04/08 06:37:33;;;;;;;1.30;0.75;;;10.20;99.90;;;;;;5054260;28;20460;-87
2022/04/08 06:40:05;;;;;;;1.88;1.00;;;10.20;99.90;;;;;;5055247;28;20132;-88
2022/04/08 06:42:32;;;;;;;2.20;0.80;;;9.90;99.90;;;;;;5054584;28;20059;-85
2022/04/08 06:44:59;;;;;;;4.82;2.03;;;10.00;99.90;;;;;;5054045;28;20080;-86
2022/04/08 06:47:26;;;;;;;1.70;1.48;;;10.20;99.90;;;;;;5054441;28;20181;-86
2022/04/08 06:49:53;;;;;;;1.05;0.75;;;10.00;99.90;;;;;;5055676;28;20080;-88
2022/04/08 06:52:20;;;;;;;2.72;0.80;;;9.80;99.90;;;;;;5087599;28;20128;-86
2022/04/08 06:54:47;;;;;;;1.60;0.90;;;9.50;99.90;;;;;;5053746;28;20524;-85
2022/04/08 06:57:14;;;;;;;2.50;1.10;;;9.20;99.90;;;;;;5054111;28;20041;-86
2022/04/08 06:59:41;;;;;;;0.93;0.70;;;8.90;99.90;;;;;;5055042;28;20088;-87
2022/04/08 07:02:09;;;;;;;1.33;1.00;;;8.90;99.90;;;;;;5055572;28;20080;-87
2022/04/08 07:04:36;;;;;;;3.17;1.00;;;8.90;99.90;;;;;;5054615;28;20545;-85
2022/04/08 07:07:06;;;;;;;2.15;0.80;;;8.90;99.90;;;;;;5087434;28;20084;-86
2022/04/08 07:09:34;;;;;;;0.60;0.60;;;8.70;99.90;;;;;;5055235;28;20048;-86
2022/04/08 07:12:03;;;;;;;2.95;0.90;;;8.80;99.90;;;;;;5054320;28;20128;-86
2022/04/08 07:14:30;;;;;;;2.80;0.80;;;8.90;99.90;;;;;;5054662;28;20055;-86
2022/04/08 07:16:57;;;;;;;1.88;1.13;;;9.00;99.90;;;;;;5053680;28;20046;-85
2022/04/08 07:19:24;;;;;;;3.13;0.90;;;9.10;99.90;;;;;;5087082;28;20140;-86
2022/04/08 07:21:50;;;;;;;3.00;0.82;;;9.10;99.90;;;;;;5054807;28;20203;-86
2022/04/08 07:24:18;;;;;;;2.15;0.80;;;9.20;99.90;;;;;;5054435;28;20061;-86
2022/04/08 07:26:45;;;;;;;1.08;0.98;;;9.20;99.90;;;;;;5053234;28;20141;-86
2022/04/08 07:29:13;;;;;;;1.20;0.82;;;9.20;99.90;;;;;;5052837;28;20136;-86
2022/04/08 07:31:40;;;;;;;1.80;1.10;;;9.30;99.90;;;;;;5053641;28;20465;-86
2022/04/08 07:34:07;;;;;;;2.20;1.10;;;9.20;99.90;;;;;;5086644;28;20131;-87
2022/04/08 07:36:34;;;;;;;3.00;1.02;;;9.10;99.90;;;;;;5053716;28;20080;-85
2022/04/08 07:39:00;;;;;;;3.47;1.40;;;9.00;99.90;;;;;;5053266;28;20132;-86
2022/04/08 07:41:27;;;;;;;1.20;0.90;;;8.90;99.90;;;;;;5053371;28;20489;-85
2022/04/08 07:43:55;;;;;;;1.83;1.73;;;8.90;99.90;;;;;;5086601;28;20489;-86
2022/04/08 07:46:22;;;;;;;1.83;0.82;;;8.70;99.90;;;;;;5086568;28;20144;-86
2022/04/08 07:48:49;;;;;;;1.85;1.45;;;8.50;99.90;;;;;;5053399;28;20135;-86
2022/04/08 07:51:16;;;;;;;1.10;0.75;;;8.40;99.90;;;;;;5054249;28;20512;-88
2022/04/08 07:53:43;;;;;;;2.70;1.00;;;8.20;99.90;;;;;;5053078;28;20049;-85
2022/04/08 07:56:09;;;;;;;1.80;1.10;;;8.10;99.90;;;;;;5053218;28;20048;-85
2022/04/08 07:58:36;;;;;;;2.08;1.20;;;8.30;99.90;;;;;;5052970;28;20127;-86
2022/04/08 08:01:03;;;;;;;1.05;1.00;;;8.50;99.90;;;;;;5054011;28;20079;-86
2022/04/08 08:03:34;;;;;;;2.75;1.10;;;8.60;99.90;;;;;;5052806;28;20509;-87
2022/04/08 08:06:03;;;;;;;2.75;1.02;;;8.80;99.90;;;;;;5053408;28;20144;-86
2022/04/08 08:08:30;;;;;;;1.65;0.90;;;8.90;99.90;;;;;;5053509;28;20045;-86
2022/04/08 08:10:56;;;;;;;3.47;1.17;;;9.00;99.90;;;;;;5052475;28;20080;-86
2022/04/08 08:13:23;;;;;;;2.50;1.10;;;9.10;99.90;;;;;;5053785;28;20137;-86
2022/04/08 08:15:50;;;;;;;1.20;1.10;;;9.70;99.90;;;;;;5052821;28;20068;-86
2022/04/08 08:18:18;;;;;;;2.30;1.10;;;9.80;99.90;;;;;;5052218;28;20103;-86
2022/04/08 08:20:45;;;;;;;0.85;0.85;;;10.20;99.90;;;;;;5050507;28;20505;-86
2022/04/08 08:23:12;;;;;;;2.55;0.80;;;11.40;99.90;;;;;;5052968;28;20095;-86
2022/04/08 08:25:40;;;;;;;3.15;1.00;;;12.40;98.40;;;;;;5053727;28;20052;-86
2022/04/08 08:28:07;;;;;;;3.55;1.27;;;13.40;93.80;;;;;;5052519;28;20131;-85
2022/04/08 08:30:34;;;;;;;3.97;1.00;;;14.10;89.80;;;;;;5053113;28;20041;-86
2022/04/08 08:33:04;;;;;;;1.63;0.82;;;14.90;88.40;;;;;;5052883;28;20136;-87
2022/04/08 08:35:32;;;;;;;1.85;0.70;;;14.90;83.50;;;;;;5052814;28;20088;-87
2022/04/08 08:38:00;;;;;;;1.63;1.02;;;14.50;80.10;;;;;;5051031;28;20472;-87
2022/04/08 08:40:32;;;;;;;2.58;1.15;;;13.50;80.60;;;;;;5051742;28;20041;-87
2022/04/08 08:43:07;;;;;;;1.20;0.93;;;12.60;83.20;;;;;;5051090;28;20045;-87
2022/04/08 08:45:34;;;;;;;1.58;1.02;;;12.40;83.50;;;;;;5050956;28;20076;-88
2022/04/08 08:48:02;;;;;;;1.95;1.10;;;11.90;84.50;;;;;;5052288;28;20052;-87
2022/04/08 08:50:30;;;;;;;1.35;1.20;;;11.20;87.60;;;;;;5052661;28;20132;-87
2022/04/08 08:52:58;;;;;;;2.70;1.27;;;11.00;89.30;;;;;;5053015;28;20060;-88
2022/04/08 08:55:25;;;;;;;4.53;1.17;;;10.70;90.60;;;;;;5053303;28;20128;-86
2022/04/08 08:57:52;;;;;;;1.70;0.90;;;11.20;91.40;;;;;;5068033;28;20107;-89
2022/04/08 09:00:20;;;;;;;1.98;0.98;;;11.80;90.50;;;;;;5051708;28;20429;-87
2022/04/08 09:02:48;;;;;;;1.77;1.23;;;11.80;89.40;;;;;;5052314;28;20048;-87
2022/04/08 09:05:17;;;;;;;2.15;1.20;;;11.50;89.10;;;;;;5052394;28;20048;-86
2022/04/08 09:07:57;;;;;;;3.42;1.35;;;11.50;90.70;;;;;;5053429;28;20045;-87
2022/04/08 09:10:33;;;;;;;3.38;1.00;;;11.90;89.60;;;;;;5051972;28;20088;-88
2022/04/08 09:13:03;;;;;;;6.68;1.10;;;12.10;88.00;;;;;;5052088;28;20409;-86
2022/04/08 09:15:30;;;;;;;4.57;1.77;;;11.90;89.20;;;;;;5052821;28;20056;-86
2022/04/08 09:18:11;;;;;;;2.63;1.40;;;12.00;90.20;;;;;;5052909;28;20056;-86
2022/04/08 09:20:42;;;;;;;3.85;1.70;;;11.70;87.00;;;;;;5053063;28;20140;-86
2022/04/08 09:23:09;;;;;;;5.15;1.13;;;11.50;90.10;;;;;;5050801;28;20057;-86
2022/04/08 09:25:37;;;;;;;2.22;0.95;;;11.70;90.60;;;;;;5050693;28;20118;-87
2022/04/08 09:28:08;;;;;;;4.25;1.35;;;12.20;89.90;;;;;;5051685;28;20088;-87
2022/04/08 09:30:36;;;;;;;2.40;0.85;;;11.90;88.70;;;;;;5051894;28;20041;-87
2022/04/08 09:33:13;;;;;;;3.92;0.95;;;11.90;89.70;;;;;;5051424;28;20466;-86
2022/04/08 09:35:41;;;;;;;3.00;1.17;;;11.90;88.60;;;;;;5051345;28;20053;-86
2022/04/08 09:38:07;;;;;;;1.77;1.13;;;11.70;88.40;;;;;;5051968;28;20049;-88
2022/04/08 09:40:39;;;;;;;1.55;0.88;;;11.80;86.60;;;;;;5051631;28;20079;-85
2022/04/08 09:43:06;;;;;;;3.55;1.40;;;11.50;88.20;;;;;;5051857;28;20103;-87
2022/04/08 09:45:33;;;;;;;1.90;0.88;;;11.20;89.10;;;;;;5051550;28;20063;-87
2022/04/08 09:48:02;;;;;;;3.50;1.25;;;11.00;90.60;;;;;;5051650;28;20049;-86
2022/04/08 09:50:29;;;;;;;4.32;1.30;;;10.90;91.00;;;;;;5052472;28;20127;-88
2022/04/08 09:52:56;;;;;;;4.90;1.05;;;10.90;91.50;;;;;;5052545;28;20463;-87
2022/04/08 09:55:23;;;;;;;5.45;1.40;;;11.00;91.60;;;;;;5052119;28;20556;-87
2022/04/08 09:58:12;;;;;;;2.50;1.02;;;10.90;91.60;;;;;;5051477;28;20140;-88
2022/04/08 10:00:40;;;;;;;2.70;1.52;;;10.60;91.30;;;;;;5052796;28;20660;-87
2022/04/08 10:03:08;;;;;;;4.40;1.30;;;10.20;93.30;;;;;;5051424;28;20077;-87
2022/04/08 10:05:37;;;;;;;2.08;1.45;;;10.00;95.20;;;;;;5051217;28;20072;-88
2022/04/08 10:08:06;;;;;;;3.85;1.58;;;9.80;97.00;;;;;;5051373;28;20045;-86
2022/04/08 10:11:06;;;;;;;4.88;1.40;;;9.30;99.90;;;;;;5051168;28;20056;-87
2022/04/08 10:13:44;;;;;;;2.20;1.15;;;9.20;99.90;;;;;;5044422;28;20049;-86
2022/04/08 10:16:17;;;;;;;5.50;1.50;;;9.20;99.90;;;;;;5053749;28;20044;-86
2022/04/08 10:18:46;;;;;;;2.83;1.35;;;9.40;99.90;;;;;;5055757;28;20485;-86
2022/04/08 10:21:14;;;;;;;2.95;1.05;;;9.70;99.90;;;;;;5054766;28;20479;-85
2022/04/08 10:24:06;;;;;;;1.35;1.15;;;10.00;99.90;;;;;;5056179;28;20056;-86
2022/04/08 10:26:33;;;;;;;6.80;0.90;;;10.10;99.90;;;;;;5054793;28;20110;-86
2022/04/08 10:29:09;;;;;;;5.43;1.38;;;10.00;99.90;;;;;;5054363;28;20421;-86
2022/04/08 10:31:36;;;;;;;2.25;1.50;;;10.10;99.90;;;;;;5052768;28;20272;-86
2022/04/08 10:34:04;;;;;;;4.00;1.10;;;10.20;99.90;;;;;;5053670;28;20052;-86
2022/04/08 10:36:35;;;;;;;3.30;1.20;;;10.50;99.90;;;;;;5053621;28;20143;-87
2022/04/08 10:39:22;;;;;;;2.65;1.52;;;10.70;99.90;;;;;;5053861;28;20694;-88
2022/04/08 10:41:54;;;;;;;0.93;0.93;;;10.50;99.90;;;;;;5053726;28;20580;-86
2022/04/08 10:44:39;;;;;;;8.50;1.40;;;10.70;99.90;;;;;;5053431;28;20110;-86
2022/04/08 10:47:20;;;;;;;1.58;1.20;;;11.10;99.90;;;;;;5055416;28;20099;-86
2022/04/08 10:50:04;;;;;;;8.68;1.00;;;11.50;99.90;;;;;;5055659;28;20052;-86
2022/04/08 10:52:39;;;;;;;1.38;1.17;;;11.70;99.20;;;;;;5054682;28;20444;-87
2022/04/08 10:55:11;;;;;;;4.25;1.50;;;11.40;97.70;;;;;;5054133;28;20045;-89
2022/04/08 10:57:40;;;;;;;2.92;1.67;;;10.90;99.00;;;;;;5054501;28;20135;-86
2022/04/08 11:00:17;;;;;;;3.65;1.40;;;10.60;99.90;;;;;;5054789;28;20048;-87
2022/04/08 11:02:46;;;;;;;4.75;1.70;;;10.30;99.90;;;;;;5054623;28;20053;-87
2022/04/08 11:05:16;;;;;;;2.55;1.27;;;10.00;99.90;;;;;;5053909;28;20501;-86
2022/04/08 11:07:47;;;;;;;6.30;1.20;;;10.00;99.90;;;;;;5070323;28;20136;-86
2022/04/08 11:10:19;;;;;;;3.28;1.40;;;10.00;99.90;;;;;;5055695;28;20128;-86
2022/04/08 11:12:49;;;;;;;2.65;1.05;;;9.90;99.90;;;;;;5054283;28;20051;-87
2022/04/08 11:15:28;;;;;;;3.20;1.17;;;10.20;99.90;;;;;;5054946;28;20057;-89
2022/04/08 11:17:55;;;;;;;6.13;1.02;;;10.10;99.90;;;;;;5053774;28;20409;-86
2022/04/08 11:20:23;;;;;;;3.08;0.93;;;10.20;99.90;;;;;;5053788;28;20553;-86
2022/04/08 11:22:52;;;;;;;2.63;1.40;;;10.50;99.90;;;;;;5054926;28;20063;-86
2022/04/08 11:25:23;;;;;;;1.77;1.27;;;10.70;99.90;;;;;;5053800;28;20045;-87
2022/04/08 11:28:04;;;;;;;4.82;1.48;;;10.80;99.90;;;;;;5052468;28;20088;-86
2022/04/08 11:30:35;;;;;;;3.55;1.08;;;11.00;99.90;;;;;;5054964;28;20072;-85
2022/04/08 11:33:13;;;;;;;2.53;1.00;;;11.10;99.90;;;;;;5053779;28;20132;-87
2022/04/08 11:35:41;;;;;;;5.78;1.23;;;10.80;99.90;;;;;;5053921;28;20139;-87
2022/04/08 11:38:18;;;;;;;6.80;2.10;;;10.30;99.90;;;;;;5053853;28;20049;-86
2022/04/08 11:40:45;;;;;;;8.15;1.65;;;10.00;99.90;;;;;;5053599;28;20131;-87
2022/04/08 11:43:16;;;;;;;2.90;1.20;;;9.80;99.90;;;;;;5054794;28;20041;-87
2022/04/08 11:45:46;;;;;;;2.08;1.10;;;9.60;99.90;;;;;;5054397;28;20535;-87
2022/04/08 11:48:15;;;;;;;8.52;1.60;;;9.40;99.90;;;;;;5053850;28;20049;-88
2022/04/08 11:50:51;;;;;;;7.78;1.60;;;9.20;99.90;;;;;;5053752;28;20501;-87
2022/04/08 11:53:20;;;;;;;4.65;1.27;;;9.10;99.90;;;;;;5053421;28;20112;-89
2022/04/08 11:55:55;;;;;;;2.92;1.42;;;9.00;99.90;;;;;;5052394;28;20132;-86
2022/04/08 11:58:22;;;;;;;4.30;1.45;;;8.80;99.90;;;;;;5054044;28;20143;-87
2022/04/08 12:00:51;;;;;;;2.55;1.23;;;8.90;99.90;;;;;;5053389;28;20049;-87
2022/04/08 12:03:42;;;;;;;6.05;1.38;;;9.00;99.90;;;;;;5053055;28;20053;-87
2022/04/08 12:06:09;;;;;;;3.13;1.20;;;9.10;99.90;;;;;;5053166;28;20053;-87
2022/04/08 12:08:38;;;;;;;5.75;1.52;;;9.20;99.90;;;;;;5052655;28;20053;-86
2022/04/08 12:11:09;;;;;;;6.13;1.65;;;9.30;99.90;;;;;;5052637;28;20058;-87
2022/04/08 12:13:40;;;;;;;3.75;1.48;;;9.10;99.90;;;;;;5053415;28;20080;-87
2022/04/08 12:16:12;;;;;;;5.38;1.23;;;9.20;99.90;;;;;;5052936;28;20509;-89
2022/04/08 12:18:52;;;;;;;2.78;1.30;;;8.70;99.90;;;;;;5054511;28;20041;-88
2022/04/08 12:21:29;;;;;;;1.90;1.30;;;8.50;99.90;;;;;;5054002;28;20520;-87
2022/04/08 12:23:59;;;;;;;2.83;1.65;;;8.10;99.90;;;;;;5053324;28;20127;-87
2022/04/08 12:26:35;;;;;;;9.35;5.35;;;7.90;99.90;;;;;;5052994;28;20049;-87
2022/04/08 12:29:14;;;;;;;6.22;4.07;;;7.90;99.90;;;;;;5053094;28;20087;-87
2022/04/08 12:31:58;;;;;;;3.22;1.27;;;7.80;99.90;;;;;;5053688;28;20551;-87
2022/04/08 12:34:25;;;;;;;5.25;1.75;;;7.50;99.90;;;;;;5053935;28;20072;-88
2022/04/08 12:36:53;;;;;;;2.90;1.65;;;7.30;99.90;;;;;;5054141;28;20084;-87
2022/04/08 12:39:19;;;;;;;2.17;1.98;;;7.10;99.90;;;;;;5052992;28;20250;-87
2022/04/08 12:41:47;;;;;;;2.15;1.40;;;7.00;99.90;;;;;;5054565;28;20096;-87
2022/04/08 12:44:15;;;;;;;2.22;1.42;;;7.00;99.90;;;;;;5052494;28;20604;-87
2022/04/08 12:46:42;;;;;;;1.50;0.90;;;7.00;99.90;;;;;;5052715;28;20049;-87
2022/04/08 12:49:08;;;;;;;9.82;2.65;;;6.80;99.90;;;;;;5052534;28;20132;-87
2022/04/08 12:51:35;;;;;;;8.95;1.27;;;6.80;99.90;;;;;;5052621;28;20490;-87
2022/04/08 12:54:03;;;;;;;3.72;1.25;;;6.70;99.90;;;;;;5052173;28;20083;-86
2022/04/08 12:56:29;;;;;;;4.88;2.33;;;6.70;99.90;;;;;;5050549;28;20048;-86
2022/04/08 12:58:57;;;;;;;1.98;1.00;;;6.70;99.90;;;;;;5051792;28;20076;-87
2022/04/08 13:01:25;;;;;;;2.80;1.10;;;6.60;99.90;;;;;;5052140;28;20096;-87
2022/04/08 13:03:52;;;;;;;3.47;1.00;;;6.50;99.90;;;;;;5053406;28;20048;-86